Time;durP1;ratioP1;P1;durP2;ratioP2;P2;SDS_P1;SDS_P2;PMS_P1;PMS_P2;Temp;Humidity;BMP_temperature;BMP_pressure;BME280_temperature;BME280_humidity;BME280_pressure;Samples;Min_cycle;Max_cycle;Signal;HPM_P1;HPM_P2
2023/09/09 00:01:14;;;;;;;12.55;11.02;;;19.70;99.90;;;;;;5033516;28;21128;-67
2023/09/09 00:03:43;;;;;;;13.02;10.73;;;19.60;99.90;;;;;;5016105;28;20520;-66
2023/09/09 00:06:10;;;;;;;13.05;11.32;;;19.60;99.90;;;;;;5033971;28;20042;-68
2023/09/09 00:08:37;;;;;;;16.00;10.93;;;19.60;99.90;;;;;;5015792;28;20053;-67
2023/09/09 00:11:06;;;;;;;13.48;10.85;;;19.60;99.90;;;;;;5015829;28;20050;-66
2023/09/09 00:13:33;;;;;;;15.15;10.73;;;19.60;99.90;;;;;;5033983;28;20053;-67
2023/09/09 00:15:59;;;;;;;12.93;9.55;;;19.60;99.90;;;;;;5015880;28;20115;-69
2023/09/09 00:18:26;;;;;;;10.80;9.05;;;19.50;99.90;;;;;;5033854;28;20053;-69
2023/09/09 00:20:53;;;;;;;10.65;9.55;;;19.50;99.90;;;;;;5015226;28;20084;-67
2023/09/09 00:23:20;;;;;;;11.80;9.02;;;19.40;99.90;;;;;;5033463;28;20057;-68
2023/09/09 00:25:48;;;;;;;11.73;8.88;;;19.40;99.90;;;;;;5033465;28;20045;-69
2023/09/09 00:28:16;;;;;;;12.38;10.27;;;19.40;99.90;;;;;;5033004;28;20073;-67
2023/09/09 00:30:43;;;;;;;13.80;10.05;;;19.40;99.90;;;;;;5033682;28;20041;-67
2023/09/09 00:33:10;;;;;;;13.70;9.95;;;19.40;99.90;;;;;;5033599;28;20045;-67
2023/09/09 00:35:38;;;;;;;12.40;9.27;;;19.40;99.90;;;;;;5015303;28;20057;-67
2023/09/09 00:38:06;;;;;;;11.98;9.25;;;19.40;99.90;;;;;;5033175;28;20085;-67
2023/09/09 00:40:33;;;;;;;10.55;8.45;;;19.30;99.90;;;;;;5033440;28;20132;-67
2023/09/09 00:43:00;;;;;;;13.25;9.93;;;19.30;99.90;;;;;;5032919;28;20115;-67
2023/09/09 00:45:29;;;;;;;12.95;10.05;;;19.30;99.90;;;;;;5015191;28;20077;-68
2023/09/09 00:47:56;;;;;;;11.80;9.48;;;19.30;99.90;;;;;;5032894;28;20512;-67
2023/09/09 00:50:24;;;;;;;11.18;9.98;;;19.30;99.90;;;;;;5032623;28;20549;-68
2023/09/09 00:52:51;;;;;;;14.98;10.80;;;19.30;99.90;;;;;;5014888;28;20052;-66
2023/09/09 00:55:18;;;;;;;11.38;9.95;;;19.20;99.90;;;;;;5032507;28;20045;-67
2023/09/09 00:57:45;;;;;;;10.95;9.73;;;19.20;99.90;;;;;;5030332;28;20053;-68
2023/09/09 01:00:13;;;;;;;12.70;9.65;;;19.20;99.90;;;;;;5032808;28;21299;-68
2023/09/09 01:02:42;;;;;;;12.00;9.38;;;19.20;99.90;;;;;;5014938;28;20076;-68
2023/09/09 01:05:10;;;;;;;10.35;9.25;;;19.20;99.90;;;;;;5032085;28;20052;-68
2023/09/09 01:07:45;;;;;;;11.90;10.15;;;19.20;99.90;;;;;;5014772;28;20041;-68
2023/09/09 01:10:12;;;;;;;11.40;9.75;;;19.20;99.90;;;;;;5032209;28;20421;-67
2023/09/09 01:12:41;;;;;;;12.15;10.23;;;19.20;99.90;;;;;;5015039;28;20121;-67
2023/09/09 01:15:09;;;;;;;10.57;9.48;;;19.10;99.90;;;;;;5032794;28;20049;-67
2023/09/09 01:17:37;;;;;;;10.98;9.40;;;19.10;99.90;;;;;;5032256;28;20041;-67
2023/09/09 01:20:13;;;;;;;14.57;10.00;;;19.20;99.90;;;;;;5014765;28;20053;-68
2023/09/09 01:22:43;;;;;;;12.20;9.73;;;19.20;99.90;;;;;;5014970;28;20103;-66
2023/09/09 01:25:11;;;;;;;11.32;10.00;;;19.20;99.90;;;;;;5014122;28;20091;-66
2023/09/09 01:27:38;;;;;;;14.82;9.75;;;19.10;99.90;;;;;;5032297;28;20482;-66
2023/09/09 01:30:06;;;;;;;11.25;8.68;;;19.10;99.90;;;;;;5014419;28;20048;-67
2023/09/09 01:32:33;;;;;;;11.63;9.50;;;19.10;99.90;;;;;;5031867;28;20061;-67
2023/09/09 01:35:04;;;;;;;10.48;8.90;;;19.00;99.90;;;;;;5032559;28;20064;-69
2023/09/09 01:37:31;;;;;;;;;;;19.10;99.90;;;;;;5032746;28;20125;-67
2023/09/09 01:40:04;;;;;;;13.25;8.95;;;19.00;99.90;;;;;;5031790;28;20085;-67
2023/09/09 01:42:32;;;;;;;10.38;8.52;;;19.00;99.90;;;;;;5014603;28;20516;-67
2023/09/09 01:44:58;;;;;;;10.82;8.60;;;18.90;99.90;;;;;;5032354;28;20128;-66
2023/09/09 01:47:25;;;;;;;14.73;9.05;;;18.90;99.90;;;;;;5014064;28;20057;-67
2023/09/09 01:49:52;;;;;;;11.10;9.93;;;18.90;99.90;;;;;;5032417;28;20080;-66
2023/09/09 01:52:19;;;;;;;11.07;9.38;;;18.90;99.90;;;;;;5031322;28;20107;-67
2023/09/09 01:54:46;;;;;;;10.98;9.18;;;18.90;99.90;;;;;;5014573;28;20494;-68
2023/09/09 01:57:16;;;;;;;12.27;9.82;;;18.90;99.90;;;;;;5029656;28;20131;-67
2023/09/09 01:59:43;;;;;;;10.35;8.40;;;18.90;99.90;;;;;;5031685;28;20069;-68
2023/09/09 02:02:10;;;;;;;9.10;8.00;;;18.90;99.90;;;;;;5014071;28;20492;-67
2023/09/09 02:04:37;;;;;;;9.20;8.15;;;18.80;99.90;;;;;;5014370;28;20050;-68
2023/09/09 02:07:04;;;;;;;12.43;9.30;;;18.80;99.90;;;;;;5016400;28;20046;-68
2023/09/09 02:09:31;;;;;;;11.55;9.30;;;18.80;99.90;;;;;;5018394;28;20053;-68
2023/09/09 02:11:58;;;;;;;12.23;9.30;;;18.70;99.90;;;;;;5036377;28;20054;-66
2023/09/09 02:14:27;;;;;;;12.10;9.70;;;18.80;99.90;;;;;;5015795;28;20053;-69
2023/09/09 02:16:53;;;;;;;10.55;9.45;;;18.80;99.90;;;;;;5035980;28;20045;-68
2023/09/09 02:19:20;;;;;;;10.90;8.93;;;18.80;99.90;;;;;;5017488;28;20147;-73
2023/09/09 02:21:47;;;;;;;10.50;8.93;;;18.80;99.90;;;;;;5035293;28;20524;-67
2023/09/09 02:24:15;;;;;;;11.77;9.63;;;18.80;99.90;;;;;;5018134;28;20060;-69
2023/09/09 02:26:41;;;;;;;12.07;9.35;;;18.90;99.90;;;;;;5033691;28;20393;-67
2023/09/09 02:29:08;;;;;;;12.13;10.23;;;18.90;99.90;;;;;;5035176;28;20052;-68
2023/09/09 02:31:37;;;;;;;10.20;9.20;;;18.80;99.90;;;;;;5017898;28;20045;-68
2023/09/09 02:34:03;;;;;;;12.80;9.05;;;18.80;99.90;;;;;;5035483;28;20056;-68
2023/09/09 02:36:30;;;;;;;12.35;8.88;;;18.80;99.90;;;;;;5017259;28;20042;-68
2023/09/09 02:38:58;;;;;;;12.70;9.45;;;18.80;99.90;;;;;;5017265;28;20084;-69
2023/09/09 02:41:24;;;;;;;12.82;9.40;;;18.80;99.90;;;;;;5017436;28;20090;-68
2023/09/09 02:43:51;;;;;;;10.55;8.55;;;18.80;99.90;;;;;;5017612;28;20468;-68
2023/09/09 02:46:20;;;;;;;9.90;8.43;;;18.70;99.90;;;;;;5017433;28;20045;-68
2023/09/09 02:48:49;;;;;;;13.98;10.13;;;18.70;99.90;;;;;;5015493;28;20080;-69
2023/09/09 02:51:16;;;;;;;13.73;10.32;;;18.70;99.90;;;;;;5032868;28;20045;-68
2023/09/09 02:53:43;;;;;;;10.48;8.57;;;18.70;99.90;;;;;;5035483;28;20314;-70
2023/09/09 02:56:11;;;;;;;14.77;10.95;;;18.70;99.90;;;;;;5034809;28;20045;-71
2023/09/09 02:58:38;;;;;;;17.73;15.55;;;18.70;99.90;;;;;;5035295;28;20056;-71
2023/09/09 03:01:05;;;;;;;14.30;10.25;;;18.60;99.90;;;;;;5015414;28;20041;-70
2023/09/09 03:03:34;;;;;;;23.40;15.35;;;18.60;99.90;;;;;;5034830;28;20055;-70
2023/09/09 03:06:02;;;;;;;17.10;13.75;;;18.60;99.90;;;;;;5017326;28;20440;-70
2023/09/09 03:08:30;;;;;;;18.40;14.32;;;18.60;99.90;;;;;;5017236;28;20061;-70
2023/09/09 03:10:57;;;;;;;13.88;11.15;;;18.60;99.90;;;;;;5016568;28;20064;-67
2023/09/09 03:13:24;;;;;;;16.05;12.30;;;18.60;99.90;;;;;;5015076;28;20057;-68
2023/09/09 03:15:51;;;;;;;19.58;17.30;;;18.60;99.90;;;;;;5034901;28;20072;-67
2023/09/09 03:18:17;;;;;;;20.38;16.88;;;18.60;99.90;;;;;;5015867;28;20037;-67
2023/09/09 03:20:44;;;;;;;19.42;14.20;;;18.60;99.90;;;;;;5034662;28;20123;-68
2023/09/09 03:23:13;;;;;;;17.58;14.98;;;18.60;99.90;;;;;;5034988;28;20060;-68
2023/09/09 03:25:40;;;;;;;16.00;12.73;;;18.50;99.90;;;;;;5016508;28;20551;-67
2023/09/09 03:28:06;;;;;;;15.20;12.68;;;18.50;99.90;;;;;;5034590;28;20041;-68
2023/09/09 03:30:54;;;;;;;15.02;12.95;;;18.50;99.90;;;;;;5031994;28;20103;-68
2023/09/09 03:33:21;;;;;;;14.93;13.32;;;18.50;99.90;;;;;;5016846;28;20073;-68
2023/09/09 03:35:48;;;;;;;14.93;13.30;;;18.40;99.90;;;;;;5034744;28;20049;-68
2023/09/09 03:38:16;;;;;;;15.52;12.93;;;18.40;99.90;;;;;;5033916;28;20055;-68
2023/09/09 03:40:43;;;;;;;15.77;12.68;;;18.40;99.90;;;;;;5016881;28;20046;-68
2023/09/09 03:43:10;;;;;;;21.70;17.52;;;18.40;99.90;;;;;;5016439;28;20053;-70
2023/09/09 03:45:37;;;;;;;22.17;18.05;;;18.30;99.90;;;;;;5033761;28;20045;-68
2023/09/09 03:48:05;;;;;;;23.08;18.20;;;18.40;99.90;;;;;;5034395;28;20052;-67
2023/09/09 03:50:32;;;;;;;17.92;15.45;;;18.40;99.90;;;;;;5016537;28;20050;-67
2023/09/09 03:52:59;;;;;;;19.23;15.75;;;18.40;99.90;;;;;;5033914;28;20404;-67
2023/09/09 03:55:27;;;;;;;16.00;13.98;;;18.40;99.90;;;;;;5016406;28;20045;-68
2023/09/09 03:57:54;;;;;;;17.67;15.50;;;18.40;99.90;;;;;;5034091;28;20057;-67
2023/09/09 04:00:21;;;;;;;14.82;12.85;;;18.40;99.90;;;;;;5033404;28;20060;-67
2023/09/09 04:02:48;;;;;;;16.60;14.18;;;18.40;99.90;;;;;;5016169;28;20452;-67
2023/09/09 04:05:15;;;;;;;16.58;14.32;;;18.40;99.90;;;;;;5015962;28;20046;-66
2023/09/09 04:07:44;;;;;;;17.85;14.95;;;18.40;99.90;;;;;;5033320;28;20042;-67
2023/09/09 04:10:11;;;;;;;20.88;16.85;;;18.40;99.90;;;;;;5016141;28;20099;-66
2023/09/09 04:12:40;;;;;;;26.17;21.05;;;18.30;99.90;;;;;;5033695;28;20429;-68
2023/09/09 04:15:08;;;;;;;19.30;16.17;;;18.40;99.90;;;;;;5015523;28;20417;-67
2023/09/09 04:17:35;;;;;;;18.00;14.80;;;18.40;99.90;;;;;;5016074;28;20045;-67
2023/09/09 04:20:03;;;;;;;20.10;16.73;;;18.30;99.90;;;;;;5015332;28;20052;-67
2023/09/09 04:22:30;;;;;;;18.60;16.05;;;18.30;99.90;;;;;;5013725;28;20045;-68
2023/09/09 04:24:57;;;;;;;26.10;18.75;;;18.30;99.90;;;;;;5015794;28;20053;-67
2023/09/09 04:27:24;;;;;;;24.98;19.98;;;18.30;99.90;;;;;;5032934;28;20045;-68
2023/09/09 04:29:52;;;;;;;20.02;17.52;;;18.30;99.90;;;;;;5015709;28;20068;-68
2023/09/09 04:32:19;;;;;;;21.15;17.60;;;18.30;99.90;;;;;;5033543;28;20076;-69
2023/09/09 04:34:46;;;;;;;21.17;17.23;;;18.30;99.90;;;;;;5015142;28;20493;-68
2023/09/09 04:37:14;;;;;;;27.75;21.33;;;18.30;99.90;;;;;;5015824;28;20049;-68
2023/09/09 04:39:41;;;;;;;26.38;20.90;;;18.30;99.90;;;;;;5033122;28;20049;-69
2023/09/09 04:42:08;;;;;;;24.52;19.88;;;18.30;99.90;;;;;;5015066;28;20441;-66
2023/09/09 04:44:35;;;;;;;31.33;21.88;;;18.40;99.90;;;;;;5015458;28;20115;-69
2023/09/09 04:47:03;;;;;;;26.42;21.08;;;18.40;99.90;;;;;;5015220;28;20103;-67
2023/09/09 04:49:31;;;;;;;31.67;22.77;;;18.40;99.90;;;;;;5032463;28;20045;-67
2023/09/09 04:51:58;;;;;;;27.58;21.90;;;18.40;99.90;;;;;;5014913;28;20559;-68
2023/09/09 04:54:24;;;;;;;27.58;21.52;;;18.40;99.90;;;;;;5032551;28;20054;-67
2023/09/09 04:56:51;;;;;;;26.92;21.40;;;18.50;99.90;;;;;;5032113;28;20091;-68
2023/09/09 04:59:18;;;;;;;25.10;19.67;;;18.50;99.90;;;;;;5030415;28;20058;-68
2023/09/09 05:01:45;;;;;;;24.35;17.40;;;18.60;99.90;;;;;;5007287;28;20057;-66
2023/09/09 05:04:14;;;;;;;29.30;21.83;;;18.80;99.90;;;;;;5029834;28;20440;-69
2023/09/09 05:06:41;;;;;;;29.95;20.80;;;18.80;99.90;;;;;;5012177;28;20061;-67
2023/09/09 05:09:08;;;;;;;25.38;21.42;;;18.80;99.90;;;;;;5030200;28;20053;-68
2023/09/09 05:11:35;;;;;;;27.30;19.55;;;18.90;99.90;;;;;;5030950;28;20132;-68
2023/09/09 05:14:02;;;;;;;26.02;19.45;;;19.00;99.90;;;;;;5030621;28;20057;-67
2023/09/09 05:16:29;;;;;;;27.35;21.15;;;19.10;99.90;;;;;;5031159;28;20046;-67
2023/09/09 05:18:56;;;;;;;25.30;20.33;;;19.10;99.90;;;;;;5030102;28;20057;-68
2023/09/09 05:21:24;;;;;;;30.27;20.98;;;19.20;99.90;;;;;;5029544;28;20494;-67
2023/09/09 05:23:51;;;;;;;24.58;19.50;;;19.20;99.90;;;;;;5029828;28;20045;-67
2023/09/09 05:26:19;;;;;;;25.25;20.45;;;19.20;99.90;;;;;;5031452;28;20374;-68
2023/09/09 05:28:46;;;;;;;23.92;20.52;;;19.20;99.90;;;;;;5011588;28;20041;-68
2023/09/09 05:31:13;;;;;;;26.45;21.15;;;19.10;99.90;;;;;;5029315;28;20417;-66
2023/09/09 05:33:40;;;;;;;27.00;22.77;;;19.10;99.90;;;;;;5011454;28;20084;-66
2023/09/09 05:36:07;;;;;;;25.98;22.05;;;19.00;99.90;;;;;;5013080;28;20135;-67
2023/09/09 05:38:36;;;;;;;25.10;20.85;;;19.00;99.90;;;;;;5010623;28;20057;-66
2023/09/09 05:41:03;;;;;;;28.08;21.23;;;19.00;99.90;;;;;;5029712;28;20099;-65
2023/09/09 05:43:30;;;;;;;26.52;22.63;;;18.90;99.90;;;;;;5011774;28;20471;-67
2023/09/09 05:45:57;;;;;;;24.80;21.85;;;18.90;99.90;;;;;;5011684;28;20510;-67
2023/09/09 05:48:24;;;;;;;27.88;21.77;;;18.90;99.90;;;;;;5031115;28;20497;-67
2023/09/09 05:50:51;;;;;;;28.05;22.25;;;18.90;99.90;;;;;;5011832;28;20061;-67
2023/09/09 05:53:18;;;;;;;28.83;20.70;;;18.90;99.90;;;;;;5030988;28;20081;-66
2023/09/09 05:55:46;;;;;;;25.85;21.55;;;18.90;99.90;;;;;;5029854;28;20096;-66
2023/09/09 05:58:13;;;;;;;25.50;20.98;;;18.90;99.90;;;;;;5013399;28;20421;-65
2023/09/09 06:00:41;;;;;;;25.20;21.65;;;19.00;99.90;;;;;;5008482;28;20072;-65
2023/09/09 06:03:08;;;;;;;30.38;23.02;;;19.00;99.90;;;;;;5010075;28;20136;-68
2023/09/09 06:05:35;;;;;;;33.85;20.98;;;19.00;99.90;;;;;;5009166;28;20056;-66
2023/09/09 06:08:02;;;;;;;29.00;23.23;;;19.10;99.90;;;;;;5009141;28;20038;-65
2023/09/09 06:10:30;;;;;;;23.42;20.55;;;19.10;99.90;;;;;;5009035;28;20046;-65
2023/09/09 06:12:58;;;;;;;27.10;20.80;;;19.20;99.90;;;;;;5010220;28;20460;-65
2023/09/09 06:15:25;;;;;;;26.80;20.55;;;19.30;99.90;;;;;;5009242;28;20069;-65
2023/09/09 06:17:52;;;;;;;28.35;21.00;;;19.30;99.90;;;;;;5003545;28;20491;-66
2023/09/09 06:20:19;;;;;;;22.65;19.73;;;19.40;99.90;;;;;;5007522;28;20089;-66
2023/09/09 06:22:45;;;;;;;26.10;20.05;;;19.70;99.90;;;;;;5010315;28;20054;-66
2023/09/09 06:25:12;;;;;;;25.10;20.23;;;20.20;99.90;;;;;;5006462;28;20108;-65
2023/09/09 06:27:40;;;;;;;25.67;20.10;;;21.00;99.90;;;;;;5007367;28;20097;-66
2023/09/09 06:30:09;;;;;;;23.88;19.40;;;21.70;99.90;;;;;;5006676;28;20125;-65
2023/09/09 06:32:36;;;;;;;24.23;19.15;;;22.30;99.90;;;;;;5007628;28;20056;-65
2023/09/09 06:35:03;;;;;;;24.52;19.73;;;22.90;99.90;;;;;;5009792;28;20045;-65
2023/09/09 06:37:30;;;;;;;22.00;18.15;;;23.10;99.90;;;;;;5008098;28;20141;-66
2023/09/09 06:39:57;;;;;;;24.40;18.83;;;22.90;99.90;;;;;;5008012;28;20050;-65
2023/09/09 06:42:23;;;;;;;22.25;18.90;;;22.70;99.90;;;;;;5008241;28;20112;-66
2023/09/09 06:44:50;;;;;;;23.10;19.05;;;22.70;99.90;;;;;;5010463;28;20482;-65
2023/09/09 06:47:19;;;;;;;22.45;18.30;;;23.10;99.90;;;;;;5009172;28;20054;-65
2023/09/09 06:49:46;;;;;;;22.58;18.05;;;23.60;99.90;;;;;;5009958;28;20486;-65
2023/09/09 06:52:12;;;;;;;20.58;18.15;;;24.20;99.90;;;;;;5008569;28;20478;-65
2023/09/09 06:54:39;;;;;;;22.95;18.35;;;24.80;99.90;;;;;;5012463;28;20046;-65
2023/09/09 06:57:06;;;;;;;19.95;17.10;;;25.20;99.90;;;;;;5012914;28;20096;-67
2023/09/09 06:59:34;;;;;;;21.13;17.85;;;25.60;99.90;;;;;;5011086;28;20053;-66
2023/09/09 07:02:02;;;;;;;22.48;17.33;;;26.20;99.90;;;;;;5019368;28;20509;-66
2023/09/09 07:04:30;;;;;;;21.88;17.13;;;26.70;99.90;;;;;;5016078;28;20369;-67
2023/09/09 07:06:57;;;;;;;19.88;17.25;;;27.10;99.90;;;;;;5032476;28;20050;-67
2023/09/09 07:09:24;;;;;;;20.42;16.90;;;27.50;99.90;;;;;;5033396;28;20049;-66
2023/09/09 07:11:51;;;;;;;20.40;18.20;;;27.90;99.90;;;;;;5014852;28;20045;-67
2023/09/09 07:14:18;;;;;;;19.13;15.60;;;28.20;99.90;;;;;;5015193;28;20493;-66
2023/09/09 07:16:45;;;;;;;19.75;16.77;;;28.60;99.90;;;;;;5031573;28;20053;-67
2023/09/09 07:19:12;;;;;;;22.33;16.10;;;28.70;99.90;;;;;;5031760;28;20139;-66
2023/09/09 07:21:40;;;;;;;29.55;17.75;;;28.90;99.90;;;;;;5033777;28;20416;-71
2023/09/09 07:24:07;;;;;;;20.08;17.98;;;29.40;99.90;;;;;;5031165;28;20111;-66
2023/09/09 07:26:34;;;;;;;18.63;16.10;;;29.50;99.90;;;;;;5033700;28;20050;-67
2023/09/09 07:29:01;;;;;;;18.70;16.00;;;30.00;99.90;;;;;;5032656;28;20049;-67
2023/09/09 07:31:28;;;;;;;19.67;17.50;;;30.10;99.90;;;;;;5015443;28;20049;-65
2023/09/09 07:33:55;;;;;;;18.73;16.73;;;30.00;99.90;;;;;;5032817;28;20132;-67
2023/09/09 07:36:22;;;;;;;19.33;17.45;;;30.10;99.90;;;;;;5014681;28;20053;-67
2023/09/09 07:38:51;;;;;;;24.45;17.35;;;30.50;99.90;;;;;;5033606;28;20052;-68
2023/09/09 07:41:18;;;;;;;19.65;17.65;;;30.80;99.00;;;;;;5032564;28;20046;-67
2023/09/09 07:43:45;;;;;;;19.75;17.80;;;30.90;99.00;;;;;;5016178;28;20057;-67
2023/09/09 07:46:12;;;;;;;20.17;17.98;;;31.00;98.60;;;;;;5016326;28;20053;-66
2023/09/09 07:48:38;;;;;;;19.13;17.15;;;31.30;98.20;;;;;;5016318;28;20386;-67
2023/09/09 07:51:05;;;;;;;21.30;17.02;;;31.60;97.80;;;;;;5015874;28;20061;-67
2023/09/09 07:53:32;;;;;;;19.50;17.50;;;31.80;97.50;;;;;;5016355;28;20056;-66
2023/09/09 07:56:01;;;;;;;19.77;17.67;;;31.90;97.10;;;;;;5015577;28;20053;-67
2023/09/09 07:58:27;;;;;;;19.52;17.23;;;32.30;96.50;;;;;;5016009;28;20104;-66
2023/09/09 08:01:04;;;;;;;19.25;17.25;;;32.60;96.30;;;;;;5016424;28;20140;-67
2023/09/09 08:03:32;;;;;;;18.67;16.73;;;33.10;94.60;;;;;;5014125;28;20244;-67
2023/09/09 08:06:02;;;;;;;21.25;18.20;;;33.30;95.20;;;;;;5033345;28;20045;-67
2023/09/09 08:08:29;;;;;;;17.98;16.08;;;33.50;94.80;;;;;;5034241;28;20045;-67
2023/09/09 08:10:56;;;;;;;18.80;16.60;;;33.70;94.30;;;;;;5034017;28;20065;-67
2023/09/09 08:13:25;;;;;;;18.55;16.55;;;34.10;94.00;;;;;;5015707;28;20400;-68
2023/09/09 08:15:52;;;;;;;17.85;16.20;;;34.20;93.40;;;;;;5032263;28;20079;-67
2023/09/09 08:18:19;;;;;;;18.95;17.05;;;34.30;93.30;;;;;;5016008;28;20053;-67
2023/09/09 08:20:50;;;;;;;19.30;17.40;;;33.80;93.20;;;;;;5033383;28;20409;-68
2023/09/09 08:23:17;;;;;;;19.90;15.82;;;34.10;92.90;;;;;;5031677;28;20057;-68
2023/09/09 08:25:44;;;;;;;19.05;16.20;;;34.00;92.90;;;;;;5016120;28;20045;-68
2023/09/09 08:28:11;;;;;;;16.60;14.82;;;34.60;92.70;;;;;;5017328;28;20099;-68
2023/09/09 08:30:41;;;;;;;17.10;15.32;;;34.70;92.20;;;;;;5032867;28;20045;-69
2023/09/09 08:33:07;;;;;;;18.60;15.73;;;35.40;91.80;;;;;;5014358;28;20053;-67
2023/09/09 08:35:34;;;;;;;15.25;13.63;;;35.80;91.30;;;;;;5014831;28;20053;-68
2023/09/09 08:38:01;;;;;;;16.17;14.68;;;36.00;90.90;;;;;;5014530;28;20049;-68
2023/09/09 08:40:28;;;;;;;15.77;14.27;;;36.10;90.70;;;;;;5025894;28;20053;-68
2023/09/09 08:43:03;;;;;;;14.68;13.20;;;36.10;90.50;;;;;;5026430;28;20056;-68
2023/09/09 08:45:37;;;;;;;15.63;13.95;;;36.70;90.10;;;;;;5011946;28;20053;-68
2023/09/09 08:48:07;;;;;;;17.45;13.00;;;36.50;88.40;;;;;;5029860;28;20046;-67
2023/09/09 08:50:38;;;;;;;13.75;12.40;;;36.50;88.80;;;;;;5029413;28;20057;-68
2023/09/09 08:53:06;;;;;;;13.23;11.82;;;36.90;87.70;;;;;;5031231;28;20099;-68
2023/09/09 08:55:33;;;;;;;14.73;12.38;;;36.80;87.20;;;;;;5029483;28;20092;-68
2023/09/09 08:58:01;;;;;;;11.80;10.65;;;37.10;87.10;;;;;;5031409;28;20141;-68
2023/09/09 09:00:33;;;;;;;12.88;11.57;;;37.30;86.80;;;;;;5030908;28;20045;-68
2023/09/09 09:03:01;;;;;;;12.80;11.48;;;37.50;85.00;;;;;;5027786;28;20050;-68
2023/09/09 09:05:31;;;;;;;12.45;10.77;;;37.20;85.20;;;;;;5032049;28;20444;-69
2023/09/09 09:07:58;;;;;;;12.48;11.27;;;37.40;85.10;;;;;;5012829;28;20556;-69
2023/09/09 09:10:25;;;;;;;13.23;11.13;;;38.10;85.00;;;;;;5030788;28;20128;-69
2023/09/09 09:12:52;;;;;;;15.13;11.55;;;38.10;84.80;;;;;;5030210;28;20049;-69
2023/09/09 09:15:20;;;;;;;12.77;10.93;;;38.40;84.00;;;;;;5011843;28;20081;-69
2023/09/09 09:17:47;;;;;;;13.05;11.70;;;38.20;83.80;;;;;;5030380;28;20055;-69
2023/09/09 09:20:26;;;;;;;14.68;12.35;;;38.00;83.70;;;;;;5031805;28;20049;-68
2023/09/09 09:22:58;;;;;;;12.73;11.38;;;38.10;82.50;;;;;;5012389;28;20045;-69
2023/09/09 09:25:26;;;;;;;14.65;12.43;;;38.00;83.80;;;;;;5031664;28;20512;-69
2023/09/09 09:27:56;;;;;;;13.13;11.82;;;38.50;83.40;;;;;;5029923;28;20132;-69
2023/09/09 09:30:24;;;;;;;15.35;12.13;;;38.50;82.80;;;;;;5030090;28;20092;-69
2023/09/09 09:32:55;;;;;;;14.95;13.45;;;39.00;82.20;;;;;;5012107;28;20085;-69
2023/09/09 09:35:26;;;;;;;13.05;11.80;;;39.20;81.30;;;;;;5012617;28;20053;-68
2023/09/09 09:37:56;;;;;;;13.70;12.35;;;39.40;81.20;;;;;;5028615;28;20046;-68
2023/09/09 09:40:23;;;;;;;15.73;13.38;;;39.10;81.00;;;;;;5012380;28;20049;-69
2023/09/09 09:42:50;;;;;;;14.07;12.63;;;39.30;80.90;;;;;;5010371;28;20579;-68
2023/09/09 09:45:18;;;;;;;14.02;11.63;;;39.60;81.00;;;;;;5011421;28;20053;-68
2023/09/09 09:47:47;;;;;;;16.27;14.63;;;39.50;81.00;;;;;;5013343;28;20056;-69
2023/09/09 09:50:19;;;;;;;17.58;13.20;;;39.40;80.70;;;;;;5029024;28;20080;-67
2023/09/09 09:52:58;;;;;;;13.93;12.20;;;39.70;80.10;;;;;;5029797;28;20049;-69
2023/09/09 09:55:25;;;;;;;14.75;13.32;;;39.90;80.40;;;;;;5011980;28;20104;-69
2023/09/09 09:57:54;;;;;;;15.77;14.23;;;39.90;80.20;;;;;;5013012;28;20052;-69
2023/09/09 10:00:22;;;;;;;16.73;15.13;;;40.20;80.00;;;;;;5011505;28;20168;-70
2023/09/09 10:02:53;;;;;;;16.85;15.15;;;39.90;79.90;;;;;;5030887;28;20102;-69
2023/09/09 10:05:22;;;;;;;17.83;15.60;;;40.00;79.20;;;;;;5027027;28;20103;-70
2023/09/09 10:07:53;;;;;;;16.77;14.77;;;40.20;79.90;;;;;;5030702;28;20476;-69
2023/09/09 10:10:23;;;;;;;15.05;13.45;;;40.60;79.10;;;;;;5029788;28;20045;-69
2023/09/09 10:12:54;;;;;;;18.88;15.65;;;40.80;79.30;;;;;;5029602;28;20525;-69
2023/09/09 10:15:22;;;;;;;17.40;15.50;;;40.50;79.10;;;;;;5031122;28;20049;-69
2023/09/09 10:17:51;;;;;;;20.27;15.50;;;40.40;79.40;;;;;;5011580;28;20069;-69
2023/09/09 10:20:19;;;;;;;17.40;15.80;;;40.20;79.30;;;;;;5028372;28;20069;-68
2023/09/09 10:22:49;;;;;;;17.75;16.00;;;40.60;78.60;;;;;;5012218;28;20053;-68
2023/09/09 10:25:17;;;;;;;15.88;14.30;;;40.60;78.40;;;;;;5029204;28;20048;-68
2023/09/09 10:27:47;;;;;;;18.98;15.45;;;40.80;78.20;;;;;;5031896;28;20413;-67
2023/09/09 10:30:15;;;;;;;17.52;15.70;;;40.30;77.80;;;;;;5034630;28;20091;-67
2023/09/09 10:32:43;;;;;;;16.15;13.82;;;40.00;77.90;;;;;;5015732;28;20074;-69
2023/09/09 10:35:12;;;;;;;17.97;13.73;;;40.30;77.70;;;;;;5017121;28;20425;-68
2023/09/09 10:37:39;;;;;;;16.63;14.95;;;40.50;77.00;;;;;;5032754;28;20652;-67
2023/09/09 10:40:07;;;;;;;14.23;12.65;;;40.10;76.10;;;;;;5016108;28;20057;-70
2023/09/09 10:42:37;;;;;;;16.52;14.07;;;40.80;76.10;;;;;;5015501;28;20053;-68
2023/09/09 10:45:24;;;;;;;19.52;13.27;;;40.30;76.90;;;;;;5034605;28;20136;-68
2023/09/09 10:47:58;;;;;;;14.18;12.73;;;40.40;74.90;;;;;;5032842;28;20386;-69
2023/09/09 10:50:40;;;;;;;15.93;11.32;;;40.20;74.60;;;;;;5032842;28;20041;-69
2023/09/09 10:53:22;;;;;;;12.65;10.35;;;40.40;73.90;;;;;;5017049;28;20073;-71
2023/09/09 10:55:53;;;;;;;13.80;9.38;;;40.30;74.30;;;;;;5032899;28;20140;-68
2023/09/09 10:58:22;;;;;;;10.20;8.95;;;40.70;74.60;;;;;;5034810;28;20045;-68
2023/09/09 11:00:50;;;;;;;;;;;40.90;74.50;;;;;;5033059;28;20057;-68
2023/09/09 11:03:22;;;;;;;8.77;6.68;;;41.00;73.50;;;;;;5034577;28;19925;-70
2023/09/09 11:06:20;;;;;;;10.95;8.50;;;41.10;74.30;;;;;;5015320;28;20049;-69
2023/09/09 11:08:49;;;;;;;11.18;10.02;;;41.30;73.10;;;;;;5011969;28;20068;-70
2023/09/09 11:11:18;;;;;;;11.68;9.43;;;41.20;74.10;;;;;;5015122;28;20083;-67
2023/09/09 11:13:51;;;;;;;16.02;11.75;;;41.30;74.00;;;;;;5015854;28;20067;-69
2023/09/09 11:16:33;;;;;;;15.18;12.20;;;41.00;73.50;;;;;;5033802;28;20049;-68
2023/09/09 11:19:02;;;;;;;10.90;9.38;;;41.30;73.10;;;;;;5032896;28;20045;-68
2023/09/09 11:21:32;;;;;;;11.55;10.02;;;41.20;72.80;;;;;;5034144;28;20049;-68
2023/09/09 11:24:00;;;;;;;10.57;9.15;;;41.10;71.90;;;;;;5013907;28;20133;-68
2023/09/09 11:26:28;;;;;;;12.43;8.95;;;40.80;72.30;;;;;;5034628;28;20268;-68
2023/09/09 11:28:55;;;;;;;11.80;10.13;;;41.00;72.50;;;;;;5015938;28;20453;-68
2023/09/09 11:31:23;;;;;;;12.73;10.10;;;40.80;72.40;;;;;;5033462;28;20045;-69
2023/09/09 11:33:54;;;;;;;;;;;40.80;71.30;;;;;;5017413;28;20049;-70
2023/09/09 11:36:21;;;;;;;12.27;10.65;;;40.90;70.90;;;;;;5016093;28;19928;-69
2023/09/09 11:38:48;;;;;;;12.18;10.52;;;40.30;72.00;;;;;;5033985;28;20056;-70
2023/09/09 11:41:19;;;;;;;10.95;8.88;;;40.60;71.20;;;;;;5034387;28;20060;-69
2023/09/09 11:43:57;;;;;;;12.05;10.52;;;40.80;71.20;;;;;;5016231;28;20471;-70
2023/09/09 11:46:24;;;;;;;13.13;8.90;;;40.90;71.10;;;;;;5016191;28;20136;-69
2023/09/09 11:48:53;;;;;;;12.73;10.00;;;40.80;71.50;;;;;;5034398;28;20484;-70
2023/09/09 11:51:21;;;;;;;12.57;11.38;;;40.80;71.50;;;;;;5015784;28;20053;-69
2023/09/09 11:53:48;;;;;;;12.03;10.83;;;40.70;71.20;;;;;;5016597;28;20057;-69
2023/09/09 11:56:15;;;;;;;10.40;8.60;;;41.00;70.90;;;;;;5016765;28;20065;-70
2023/09/09 11:58:43;;;;;;;9.02;8.13;;;41.20;71.20;;;;;;5034024;28;20453;-69
2023/09/09 12:01:12;;;;;;;14.23;12.33;;;41.10;71.00;;;;;;5016174;28;20485;-70
2023/09/09 12:03:39;;;;;;;10.25;9.07;;;41.00;70.70;;;;;;5016101;28;20052;-70
2023/09/09 12:06:09;;;;;;;11.27;9.57;;;41.10;71.00;;;;;;5033583;28;20132;-70
2023/09/09 12:08:36;;;;;;;10.50;9.50;;;41.10;71.10;;;;;;5014750;28;20049;-70
2023/09/09 12:11:06;;;;;;;12.88;9.95;;;41.10;71.20;;;;;;5014640;28;20108;-70
2023/09/09 12:13:33;;;;;;;10.77;8.32;;;41.30;70.30;;;;;;5016034;28;20160;-69
2023/09/09 12:16:00;;;;;;;9.05;8.05;;;40.70;70.40;;;;;;5016224;28;20058;-70
2023/09/09 12:18:27;;;;;;;9.25;7.75;;;40.50;70.50;;;;;;5015591;28;20095;-70
2023/09/09 12:21:02;;;;;;;10.85;7.32;;;40.80;69.90;;;;;;5033749;28;20409;-71
2023/09/09 12:23:31;;;;;;;11.05;8.48;;;40.80;69.90;;;;;;5013816;28;20045;-70
2023/09/09 12:26:07;;;;;;;9.38;8.38;;;41.10;70.00;;;;;;5033209;28;20054;-70
2023/09/09 12:28:34;;;;;;;9.35;7.80;;;40.60;69.80;;;;;;5033560;28;20064;-70
2023/09/09 12:31:00;;;;;;;10.20;7.28;;;40.80;69.50;;;;;;5015826;28;20041;-70
2023/09/09 12:33:28;;;;;;;9.43;7.53;;;40.60;69.40;;;;;;5015142;28;20045;-70
2023/09/09 12:35:55;;;;;;;7.85;7.05;;;40.50;69.50;;;;;;5015384;28;20057;-70